createdAt,value
2023-04-22T00:01:21.074Z,14.50
2023-04-22T00:03:49.836Z,14.50
2023-04-22T00:06:18.975Z,17.30
2023-04-22T00:08:47.363Z,14.30
2023-04-22T00:11:16.030Z,12.80
2023-04-22T00:13:45.646Z,18.10
2023-04-22T00:16:13.944Z,14.60
2023-04-22T00:18:43.330Z,16.70
2023-04-22T00:21:11.708Z,17.30
2023-04-22T00:23:40.087Z,20.00
2023-04-22T00:26:09.290Z,17.30
2023-04-22T00:28:38.592Z,19.30
2023-04-22T00:31:08.127Z,16.70
2023-04-22T00:33:36.697Z,16.50
2023-04-22T00:36:05.892Z,17.60
2023-04-22T00:38:34.281Z,15.00
2023-04-22T00:41:03.062Z,15.90
2023-04-22T00:43:31.440Z,12.80
2023-04-22T00:46:00.044Z,13.90
2023-04-22T00:48:28.994Z,12.50
2023-04-22T00:50:57.617Z,14.30
2023-04-22T00:53:26.094Z,11.20
2023-04-22T00:55:54.890Z,13.90
2023-04-22T00:58:23.674Z,13.30
2023-04-22T01:00:52.431Z,11.20
2023-04-22T01:03:22.523Z,14.90
2023-04-22T01:05:51.501Z,12.10
2023-04-22T01:08:20.481Z,11.60
2023-04-22T01:10:49.068Z,10.30
2023-04-22T01:13:17.452Z,11.10
2023-04-22T01:15:46.223Z,11.80
2023-04-22T01:18:14.831Z,9.50
2023-04-22T01:20:43.618Z,13.10
2023-04-22T01:23:19.320Z,10.30
2023-04-22T01:25:48.479Z,13.90
2023-04-22T01:28:17.121Z,9.80
2023-04-22T01:30:45.541Z,12.50
2023-04-22T01:33:14.192Z,11.00
2023-04-22T01:35:42.714Z,14.40
2023-04-22T01:38:12.017Z,12.50
2023-04-22T01:40:40.507Z,10.40
2023-04-22T01:43:08.987Z,9.60
2023-04-22T01:45:37.523Z,14.20
2023-04-22T01:48:09.288Z,10.30
2023-04-22T01:50:38.633Z,11.20
2023-04-22T01:53:07.838Z,12.00
2023-04-22T01:55:37.565Z,10.20
2023-04-22T01:58:06.239Z,9.10
2023-04-22T02:00:35.647Z,9.70
2023-04-22T02:03:04.283Z,9.90
2023-04-22T02:05:33.530Z,10.70
2023-04-22T02:08:02.016Z,9.50
2023-04-22T02:10:31.267Z,11.10
2023-04-22T02:12:59.902Z,7.70
2023-04-22T02:15:28.236Z,11.20
2023-04-22T02:17:56.666Z,15.90
2023-04-22T02:20:25.146Z,8.30
2023-04-22T02:22:53.736Z,10.10
2023-04-22T02:25:22.196Z,9.50
2023-04-22T02:27:51.731Z,9.10
2023-04-22T02:30:20.514Z,11.70
2023-04-22T02:32:49.444Z,9.20
2023-04-22T02:35:17.996Z,10.60
2023-04-22T02:37:46.383Z,8.70
2023-04-22T02:40:14.862Z,9.10
2023-04-22T02:42:43.353Z,10.00
2023-04-22T02:45:11.930Z,8.60
2023-04-22T02:47:40.533Z,7.90
2023-04-22T02:50:09.550Z,9.50
2023-04-22T02:52:38.708Z,9.10
2023-04-22T02:55:08.276Z,9.70
2023-04-22T02:57:36.803Z,7.60
2023-04-22T03:00:05.728Z,7.90
2023-04-22T03:02:35.029Z,9.20
2023-04-22T03:05:10.943Z,9.40
2023-04-22T03:07:39.544Z,10.60
2023-04-22T03:10:08.772Z,9.80
2023-04-22T03:12:38.261Z,10.70
2023-04-22T03:15:07.524Z,9.70
2023-04-22T03:17:37.309Z,7.30
2023-04-22T03:20:10.254Z,7.40
2023-04-22T03:22:39.049Z,7.50
2023-04-22T03:25:08.622Z,8.00
2023-04-22T03:27:37.570Z,9.10
2023-04-22T03:30:06.759Z,8.30
2023-04-22T03:32:35.879Z,6.30
2023-04-22T03:35:31.059Z,10.40
2023-04-22T03:38:01.651Z,11.00
2023-04-22T03:40:33.559Z,8.60
2023-04-22T03:45:33.211Z,10.60
2023-04-22T03:48:36.088Z,11.60
2023-04-22T03:51:09.693Z,13.20
2023-04-22T03:53:39.293Z,9.00
2023-04-22T03:56:10.235Z,9.90
2023-04-22T03:58:41.685Z,9.00
2023-04-22T04:01:10.690Z,8.50
2023-04-22T04:03:40.059Z,9.30
2023-04-22T04:06:09.821Z,9.90
2023-04-22T04:08:40.749Z,12.60
2023-04-22T04:11:12.153Z,10.20
2023-04-22T04:13:40.576Z,12.80
2023-04-22T04:16:17.733Z,11.90
2023-04-22T04:18:51.017Z,9.80
2023-04-22T04:21:19.645Z,9.00
2023-04-22T04:23:50.894Z,10.70
2023-04-22T04:26:20.711Z,13.40
2023-04-22T04:28:52.675Z,12.80
2023-04-22T04:31:21.722Z,12.10
2023-04-22T04:33:50.559Z,9.70
2023-04-22T04:36:19.251Z,12.00
2023-04-22T04:38:48.154Z,8.60
2023-04-22T04:41:16.937Z,9.30
2023-04-22T04:43:46.653Z,8.10
2023-04-22T04:46:41.567Z,9.60
2023-04-22T04:49:12.963Z,7.30
2023-04-22T04:51:52.966Z,8.80
2023-04-22T04:54:21.954Z,10.30
2023-04-22T04:56:50.743Z,8.80
2023-04-22T04:59:19.435Z,8.30
2023-04-22T05:01:49.606Z,9.30
2023-04-22T05:04:18.211Z,7.20
2023-04-22T05:06:46.937Z,10.00
2023-04-22T05:09:15.431Z,8.80
2023-04-22T05:11:44.731Z,10.30
2023-04-22T05:14:19.257Z,7.70
2023-04-22T05:16:48.249Z,8.90
2023-04-22T05:19:16.837Z,9.40
2023-04-22T05:21:45.740Z,7.90
2023-04-22T05:24:14.116Z,9.10
2023-04-22T05:26:42.601Z,10.40
2023-04-22T05:29:15.907Z,12.80
2023-04-22T05:31:44.347Z,8.90
2023-04-22T05:34:13.086Z,9.60
2023-04-22T05:36:41.554Z,6.50
2023-04-22T05:39:09.936Z,7.90
2023-04-22T05:41:38.929Z,8.40
2023-04-22T05:44:11.409Z,8.30
2023-04-22T05:46:39.795Z,9.30
2023-04-22T05:49:08.318Z,9.20
2023-04-22T05:52:06.150Z,8.90
2023-04-22T05:54:42.417Z,7.60
2023-04-22T05:57:11.312Z,9.20
2023-04-22T05:59:39.839Z,9.80
2023-04-22T06:02:08.795Z,10.20
2023-04-22T06:04:37.947Z,9.70
2023-04-22T06:07:06.990Z,9.80
2023-04-22T06:09:35.476Z,12.60
2023-04-22T06:12:04.822Z,9.60
2023-04-22T06:14:33.990Z,11.70
2023-04-22T06:17:02.480Z,10.70
2023-04-22T06:19:31.047Z,13.30
2023-04-22T06:22:00.663Z,10.60
2023-04-22T06:24:30.786Z,9.30
2023-04-22T06:26:59.574Z,10.20
2023-04-22T06:29:30.005Z,10.30
2023-04-22T06:31:58.711Z,11.30
2023-04-22T06:34:27.383Z,10.60
2023-04-22T06:36:55.760Z,10.90
2023-04-22T06:39:24.257Z,9.60
2023-04-22T06:42:07.995Z,11.30
2023-04-22T06:44:49.377Z,11.30
2023-04-22T06:47:38.053Z,14.40
2023-04-22T06:50:11.338Z,8.50
2023-04-22T06:52:54.460Z,10.70
2023-04-22T06:55:25.093Z,10.10
2023-04-22T06:57:53.480Z,8.30
2023-04-22T07:00:21.857Z,12.70
2023-04-22T07:02:50.379Z,11.40
2023-04-22T07:05:19.446Z,13.20
2023-04-22T07:07:47.919Z,14.80
2023-04-22T07:10:20.710Z,10.00
2023-04-22T07:13:19.401Z,11.90
2023-04-22T07:15:48.001Z,12.00
2023-04-22T07:18:16.577Z,13.30
2023-04-22T07:20:44.960Z,12.70
2023-04-22T07:23:13.540Z,10.50
2023-04-22T07:25:42.020Z,10.20
2023-04-22T07:28:10.714Z,11.10
2023-04-22T07:30:39.400Z,10.30
2023-04-22T07:33:13.619Z,11.30
2023-04-22T07:35:43.432Z,9.90
2023-04-22T07:38:14.072Z,10.70
2023-04-22T07:40:43.078Z,9.90
2023-04-22T07:43:11.454Z,9.90
2023-04-22T07:45:39.865Z,11.40
2023-04-22T07:48:08.308Z,11.20
2023-04-22T07:50:38.829Z,10.60
2023-04-22T07:53:07.527Z,11.50
2023-04-22T07:55:36.114Z,11.00
2023-04-22T07:58:07.564Z,11.10
2023-04-22T08:00:36.282Z,10.30
2023-04-22T08:05:15.798Z,13.30
2023-04-22T08:07:44.304Z,12.50
2023-04-22T08:10:12.881Z,9.40
2023-04-22T08:12:41.570Z,12.20
2023-04-22T08:15:10.466Z,10.30
2023-04-22T08:17:39.167Z,13.40
2023-04-22T08:20:18.410Z,10.20
2023-04-22T08:22:47.491Z,13.20
2023-04-22T08:25:16.387Z,10.20
2023-04-22T08:27:45.371Z,10.30
2023-04-22T08:30:14.370Z,9.30
2023-04-22T08:32:43.897Z,9.30
2023-04-22T08:35:12.664Z,12.00
2023-04-22T08:37:44.021Z,9.00
2023-04-22T08:40:12.386Z,11.40
2023-04-22T08:42:40.909Z,9.90
2023-04-22T08:45:10.008Z,9.80
2023-04-22T08:47:39.109Z,11.30
2023-04-22T08:50:09.866Z,10.80
2023-04-22T08:52:38.342Z,9.50
2023-04-22T08:55:07.315Z,10.40
2023-04-22T08:57:37.170Z,10.10
2023-04-22T09:00:07.415Z,10.00
2023-04-22T09:02:37.248Z,11.30
2023-04-22T09:05:07.883Z,9.60
2023-04-22T09:07:36.761Z,9.10
2023-04-22T09:10:05.857Z,9.30
2023-04-22T09:12:34.539Z,10.60
2023-04-22T09:15:03.634Z,9.20
2023-04-22T09:17:37.464Z,9.80
2023-04-22T09:20:07.449Z,8.50
2023-04-22T09:22:40.139Z,10.80
2023-04-22T09:25:16.613Z,9.70
2023-04-22T09:27:55.476Z,7.90
2023-04-22T09:30:32.213Z,9.30
2023-04-22T09:33:03.351Z,10.40
2023-04-22T09:35:34.197Z,9.30
2023-04-22T09:38:08.308Z,9.80
2023-04-22T09:40:38.136Z,10.60
2023-04-22T09:43:07.428Z,11.30
2023-04-22T09:45:37.638Z,10.90
2023-04-22T09:50:45.776Z,10.30
2023-04-22T09:53:18.886Z,9.00
2023-04-22T09:55:50.007Z,9.00
2023-04-22T09:58:20.150Z,8.20
2023-04-22T10:00:57.152Z,7.70
2023-04-22T10:03:26.077Z,9.60
2023-04-22T10:05:54.597Z,7.50
2023-04-22T10:08:23.270Z,7.50
2023-04-22T10:10:51.605Z,9.00
2023-04-22T10:13:21.073Z,9.80
2023-04-22T10:15:53.445Z,8.40
2023-04-22T10:18:24.791Z,6.70
2023-04-22T10:20:53.692Z,8.30
2023-04-22T10:23:23.446Z,7.90
2023-04-22T10:25:55.274Z,7.20
2023-04-22T10:28:24.463Z,6.90
2023-04-22T10:30:53.804Z,6.50
2023-04-22T10:36:11.961Z,8.60
2023-04-22T10:39:00.971Z,7.10
2023-04-22T10:41:32.343Z,9.10
2023-04-22T10:44:07.376Z,9.10
2023-04-22T10:46:40.260Z,7.40
2023-04-22T10:49:13.535Z,7.40
2023-04-22T10:51:52.570Z,7.80
2023-04-22T10:54:30.634Z,7.40
2023-04-22T10:57:03.871Z,8.50
2023-04-22T10:59:50.491Z,11.20
2023-04-22T11:02:19.848Z,6.80
2023-04-22T11:04:48.409Z,7.60
2023-04-22T11:07:38.659Z,8.40
2023-04-22T11:10:10.729Z,8.80
2023-04-22T11:12:39.350Z,10.80
2023-04-22T11:15:16.557Z,6.90
2023-04-22T11:17:48.015Z,12.30
2023-04-22T11:20:17.762Z,9.20
2023-04-22T11:22:54.718Z,8.40
2023-04-22T11:25:23.958Z,7.90
2023-04-22T11:27:52.934Z,6.80
2023-04-22T11:30:22.868Z,6.80
2023-04-22T11:32:59.900Z,7.20
2023-04-22T11:35:33.102Z,7.80
2023-04-22T11:38:03.459Z,7.20
2023-04-22T11:40:38.805Z,7.20
2023-04-22T11:43:09.534Z,7.00
2023-04-22T11:45:38.666Z,9.00
2023-04-22T11:48:08.314Z,6.80
2023-04-22T11:53:14.103Z,9.60
2023-04-22T11:55:42.802Z,9.20
2023-04-22T11:58:27.459Z,7.30
2023-04-22T12:00:56.655Z,7.20
2023-04-22T12:03:27.627Z,6.50
2023-04-22T12:06:06.324Z,7.20
2023-04-22T12:08:37.035Z,6.80
2023-04-22T12:11:07.212Z,5.60
2023-04-22T12:16:14.395Z,4.70
2023-04-22T12:18:55.768Z,7.20
2023-04-22T12:21:26.093Z,8.50
2023-04-22T12:23:56.344Z,5.80
2023-04-22T12:26:26.813Z,5.90
2023-04-22T12:28:59.191Z,5.80
2023-04-22T12:31:28.223Z,8.10
2023-04-22T12:33:56.897Z,8.50
2023-04-22T12:36:26.425Z,6.60
2023-04-22T12:38:54.990Z,5.00
2023-04-22T12:41:23.986Z,5.80
2023-04-22T12:43:52.987Z,5.60
2023-04-22T12:46:21.647Z,4.70
2023-04-22T12:48:50.158Z,7.80
2023-04-22T12:51:18.831Z,6.30
2023-04-22T12:53:47.705Z,5.90
2023-04-22T12:56:16.105Z,5.90
2023-04-22T12:58:44.694Z,5.30
2023-04-22T13:01:13.339Z,5.40
2023-04-22T13:03:42.079Z,7.40
2023-04-22T13:06:10.545Z,5.30
2023-04-22T13:08:39.233Z,6.20
2023-04-22T13:11:07.814Z,4.00
2023-04-22T13:13:36.609Z,6.10
2023-04-22T13:16:05.123Z,5.60
2023-04-22T13:18:34.180Z,4.70
2023-04-22T13:21:02.569Z,5.70
2023-04-22T13:23:31.349Z,7.10
2023-04-22T13:26:00.428Z,6.80
2023-04-22T13:28:28.827Z,7.90
2023-04-22T13:30:57.820Z,5.60
2023-04-22T13:33:26.303Z,5.00
2023-04-22T13:35:54.688Z,6.00
2023-04-22T13:38:23.575Z,5.60
2023-04-22T13:40:51.959Z,4.70
2023-04-22T13:43:21.157Z,4.10
2023-04-22T13:45:49.769Z,4.80
2023-04-22T13:48:18.429Z,6.10
2023-04-22T13:50:46.810Z,4.10
2023-04-22T13:53:15.300Z,4.40
2023-04-22T13:55:43.690Z,4.20
2023-04-22T13:58:12.256Z,3.90
2023-04-22T14:00:40.871Z,4.30
2023-04-22T14:03:09.294Z,3.70
2023-04-22T14:05:37.910Z,8.10
2023-04-22T14:08:06.748Z,5.00
2023-04-22T14:10:35.308Z,3.70
2023-04-22T14:13:03.972Z,4.90
2023-04-22T14:15:32.495Z,3.30
2023-04-22T14:18:01.035Z,4.10
2023-04-22T14:20:29.826Z,2.70
2023-04-22T14:22:58.727Z,3.20
2023-04-22T14:25:27.118Z,3.70
2023-04-22T14:27:55.590Z,3.70
2023-04-22T14:30:24.067Z,4.90
2023-04-22T14:32:52.690Z,3.50
2023-04-22T14:35:21.573Z,3.40
2023-04-22T14:37:49.928Z,2.90
2023-04-22T14:40:20.357Z,3.40
2023-04-22T14:42:49.042Z,3.50
2023-04-22T14:45:17.422Z,3.10
2023-04-22T14:47:46.071Z,5.40
2023-04-22T14:50:15.837Z,3.00
2023-04-22T14:52:44.812Z,4.60
2023-04-22T14:55:22.399Z,3.20
2023-04-22T14:57:53.985Z,3.50
2023-04-22T15:00:22.657Z,3.30
2023-04-22T15:02:51.432Z,3.00
2023-04-22T15:05:20.026Z,3.00
2023-04-22T15:07:48.510Z,2.90
2023-04-22T15:10:17.199Z,3.90
2023-04-22T15:12:45.782Z,5.90
2023-04-22T15:15:16.248Z,2.60
2023-04-22T15:17:44.929Z,2.30
2023-04-22T15:20:13.587Z,2.90
2023-04-22T15:22:43.917Z,4.10
2023-04-22T15:27:41.527Z,2.10
2023-04-22T15:30:11.250Z,2.20
2023-04-22T15:32:40.416Z,3.30
2023-04-22T15:35:09.092Z,2.90
2023-04-22T15:37:37.673Z,3.20
2023-04-22T15:40:08.100Z,2.80
2023-04-22T15:42:37.102Z,5.00
2023-04-22T15:45:06.689Z,2.70
2023-04-22T15:47:36.442Z,4.00
2023-04-22T15:50:09.518Z,2.60
2023-04-22T15:52:38.503Z,3.00
2023-04-22T15:55:08.161Z,2.30
2023-04-22T15:57:36.798Z,2.40
2023-04-22T16:00:11.933Z,2.90
2023-04-22T16:02:45.185Z,2.40
2023-04-22T16:05:15.048Z,2.20
2023-04-22T16:07:43.946Z,2.90
2023-04-22T16:10:12.520Z,2.60
2023-04-22T16:12:42.410Z,2.40
2023-04-22T16:15:11.380Z,4.00
2023-04-22T16:17:40.473Z,2.50
2023-04-22T16:20:10.244Z,2.50
2023-04-22T16:22:39.662Z,2.50
2023-04-22T16:25:09.148Z,3.10
2023-04-22T16:27:37.850Z,1.90
2023-04-22T16:30:07.120Z,2.60
2023-04-22T16:32:37.436Z,2.70
2023-04-22T16:35:07.165Z,3.10
2023-04-22T16:37:47.962Z,2.30
2023-04-22T16:40:16.438Z,2.00
2023-04-22T16:42:44.824Z,4.80
2023-04-22T16:45:13.616Z,1.80
2023-04-22T16:47:42.343Z,3.90
2023-04-22T16:50:12.547Z,3.40
2023-04-22T16:52:41.120Z,2.30
2023-04-22T16:55:10.155Z,1.60
2023-04-22T16:57:38.806Z,2.10
2023-04-22T17:00:08.109Z,2.10
2023-04-22T17:02:37.047Z,1.70
2023-04-22T17:05:06.621Z,3.80
2023-04-22T17:10:04.973Z,3.00
2023-04-22T17:12:33.892Z,2.50
2023-04-22T17:15:02.288Z,2.80
2023-04-22T17:17:30.880Z,15.10
2023-04-22T17:19:59.351Z,3.80
2023-04-22T17:22:28.039Z,3.20
2023-04-22T17:24:57.742Z,4.70
2023-04-22T17:27:26.226Z,5.80
2023-04-22T17:29:54.603Z,5.10
2023-04-22T17:32:23.209Z,6.30
2023-04-22T17:34:51.577Z,6.00
2023-04-22T17:37:20.159Z,5.30
2023-04-22T17:39:48.661Z,7.30
2023-04-22T17:42:17.845Z,4.70
2023-04-22T17:44:46.223Z,7.20
2023-04-22T17:47:14.568Z,4.30
2023-04-22T17:49:43.313Z,4.20
2023-04-22T17:52:11.880Z,9.40
2023-04-22T17:54:40.361Z,7.70
2023-04-22T17:57:11.098Z,11.40
2023-04-22T17:59:39.736Z,10.40
2023-04-22T18:02:09.275Z,12.50
2023-04-22T18:04:37.779Z,5.20
2023-04-22T18:07:07.283Z,6.40
2023-04-22T18:09:35.869Z,5.30
2023-04-22T18:12:04.462Z,4.90
2023-04-22T18:14:34.076Z,3.60
2023-04-22T18:17:03.887Z,4.50
2023-04-22T18:19:33.291Z,5.40
2023-04-22T18:22:01.771Z,5.70
2023-04-22T18:24:30.866Z,7.00
2023-04-22T18:26:59.351Z,9.50
2023-04-22T18:29:27.831Z,8.00
2023-04-22T18:31:57.102Z,10.90
2023-04-22T18:34:25.717Z,13.80
2023-04-22T18:36:54.203Z,17.20
2023-04-22T18:39:22.788Z,16.60
2023-04-22T18:41:51.966Z,19.30
2023-04-22T18:44:21.304Z,21.80
2023-04-22T18:46:50.602Z,21.40
2023-04-22T18:49:20.304Z,19.40
2023-04-22T18:51:49.610Z,19.70
2023-04-22T18:54:17.972Z,20.50
2023-04-22T18:56:46.474Z,18.70
2023-04-22T18:59:14.877Z,18.10
2023-04-22T19:01:43.417Z,14.20
2023-04-22T19:04:12.696Z,12.30
2023-04-22T19:06:41.854Z,17.80
2023-04-22T19:09:10.225Z,16.70
2023-04-22T19:11:38.576Z,20.60
2023-04-22T19:14:07.151Z,18.10
2023-04-22T19:16:35.878Z,22.70
2023-04-22T19:19:05.903Z,21.00
2023-04-22T19:21:34.483Z,23.80
2023-04-22T19:24:02.900Z,21.00
2023-04-22T19:26:32.588Z,22.40
2023-04-22T19:29:01.372Z,17.40
2023-04-22T19:31:30.231Z,21.10
2023-04-22T19:33:59.566Z,21.00
2023-04-22T19:36:29.089Z,18.80
2023-04-22T19:38:57.454Z,18.90
2023-04-22T19:41:25.835Z,17.70
2023-04-22T19:43:56.575Z,17.00
2023-04-22T19:46:24.977Z,13.00
2023-04-22T19:48:54.011Z,13.20
2023-04-22T19:51:22.333Z,13.10
2023-04-22T19:53:50.813Z,13.40
2023-04-22T19:56:19.413Z,20.20
2023-04-22T19:58:47.782Z,17.60
2023-04-22T20:01:16.812Z,17.50
2023-04-22T20:03:47.217Z,19.00
2023-04-22T20:06:16.830Z,18.20
2023-04-22T20:08:45.198Z,19.90
2023-04-22T20:11:13.596Z,18.00
2023-04-22T20:13:42.602Z,17.90
2023-04-22T20:16:11.944Z,18.20
2023-04-22T20:18:40.674Z,17.10
2023-04-22T20:22:44.096Z,18.70
2023-04-22T20:25:14.619Z,16.50
2023-04-22T20:27:43.521Z,19.30
2023-04-22T20:30:13.866Z,15.10
2023-04-22T20:32:42.692Z,16.00
2023-04-22T20:35:15.216Z,13.10
2023-04-22T20:37:46.480Z,19.10
2023-04-22T20:40:15.466Z,23.00
2023-04-22T20:42:44.560Z,18.90
2023-04-22T20:45:16.013Z,24.00
2023-04-22T20:47:44.818Z,22.90
2023-04-22T20:50:13.699Z,22.70
2023-04-22T20:52:43.616Z,25.30
2023-04-22T20:55:12.096Z,22.10
2023-04-22T20:57:41.621Z,23.10
2023-04-22T21:00:10.916Z,14.70
2023-04-22T21:02:40.023Z,14.10
2023-04-22T21:05:11.020Z,13.10
2023-04-22T21:07:40.880Z,19.40
2023-04-22T21:10:10.371Z,14.60
2023-04-22T21:12:39.369Z,15.60
2023-04-22T21:15:08.762Z,14.30
2023-04-22T21:17:38.861Z,15.00
2023-04-22T21:20:11.783Z,14.60
2023-04-22T21:22:41.531Z,15.50
2023-04-22T21:25:10.728Z,9.90
2023-04-22T21:27:39.821Z,14.30
2023-04-22T21:30:09.628Z,10.90
2023-04-22T21:32:40.959Z,11.10
2023-04-22T21:37:37.922Z,11.40
2023-04-22T21:40:07.308Z,11.60
2023-04-22T21:45:05.169Z,11.70
2023-04-22T21:47:33.809Z,11.20
2023-04-22T21:50:02.388Z,12.30
2023-04-22T21:52:31.691Z,12.30
2023-04-22T21:55:00.096Z,10.60
2023-04-22T21:57:28.560Z,11.00
2023-04-22T21:59:57.461Z,13.90
2023-04-22T22:02:26.876Z,13.20
2023-04-22T22:04:55.650Z,12.80
2023-04-22T22:07:24.028Z,10.70
2023-04-22T22:09:53.231Z,11.20
2023-04-22T22:12:21.921Z,10.50
2023-04-22T22:14:50.620Z,12.30
2023-04-22T22:17:19.815Z,15.20
2023-04-22T22:19:49.009Z,9.30
2023-04-22T22:22:17.391Z,8.20
2023-04-22T22:24:45.996Z,11.10
2023-04-22T22:27:14.566Z,8.80
2023-04-22T22:29:43.261Z,7.50
2023-04-22T22:32:11.808Z,8.90
2023-04-22T22:34:41.026Z,9.10
2023-04-22T22:37:09.628Z,8.90
2023-04-22T22:39:38.316Z,10.10
2023-04-22T22:42:06.805Z,11.00
2023-04-22T22:44:35.602Z,11.70
2023-04-22T22:47:04.284Z,12.30
2023-04-22T22:49:33.594Z,9.30
2023-04-22T22:52:01.967Z,10.30
2023-04-22T22:54:31.167Z,9.40
2023-04-22T22:56:59.550Z,11.50
2023-04-22T22:59:27.927Z,15.10
2023-04-22T23:01:56.739Z,11.30
2023-04-22T23:04:26.236Z,11.70
2023-04-22T23:06:55.431Z,10.30
2023-04-22T23:09:23.818Z,10.80
2023-04-22T23:11:54.684Z,11.00
2023-04-22T23:14:23.548Z,11.90
2023-04-22T23:16:52.065Z,10.00
2023-04-22T23:19:20.929Z,8.50
2023-04-22T23:21:49.830Z,9.90
2023-04-22T23:24:18.611Z,8.90
2023-04-22T23:26:47.458Z,8.50
2023-04-22T23:29:16.816Z,7.60
2023-04-22T23:31:45.208Z,9.40
2023-04-22T23:34:13.570Z,9.20
2023-04-22T23:36:42.159Z,8.90
2023-04-22T23:39:10.642Z,9.10
2023-04-22T23:41:39.341Z,8.60
2023-04-22T23:44:07.917Z,8.20
2023-04-22T23:46:36.338Z,7.80
2023-04-22T23:49:04.782Z,8.00
2023-04-22T23:51:34.477Z,7.60
2023-04-22T23:54:02.985Z,11.40
2023-04-22T23:56:32.619Z,10.00
2023-04-22T23:59:01.342Z,8.10
